createdAt,value
2017-11-14T00:01:57.060Z,100.00
2017-11-14T00:04:29.080Z,100.00
2017-11-14T00:06:59.493Z,100.00
2017-11-14T00:09:30.815Z,100.00
2017-11-14T00:12:01.388Z,100.00
2017-11-14T00:17:05.603Z,100.00
2017-11-14T00:19:35.359Z,100.00
2017-11-14T00:22:06.190Z,100.00
2017-11-14T00:24:37.731Z,100.00
2017-11-14T00:27:09.930Z,100.00
2017-11-14T00:29:40.200Z,100.00
2017-11-14T00:32:10.044Z,100.00
2017-11-14T00:34:39.930Z,100.00
2017-11-14T00:37:09.875Z,100.00
2017-11-14T00:39:39.758Z,99.58
2017-11-14T00:44:45.696Z,98.04
2017-11-14T00:47:16.118Z,96.99
2017-11-14T00:49:50.169Z,97.00
2017-11-14T00:52:22.272Z,96.80
2017-11-14T00:54:52.680Z,96.92
2017-11-14T01:02:42.845Z,96.39
2017-11-14T01:05:18.180Z,96.41
2017-11-14T01:07:53.118Z,95.86
2017-11-14T01:15:30.892Z,94.61
2017-11-14T01:18:02.592Z,93.03
2017-11-14T01:20:36.296Z,90.88
2017-11-14T01:23:06.193Z,90.43
2017-11-14T01:25:36.142Z,89.67
2017-11-14T01:28:08.320Z,89.38
2017-11-14T01:30:41.603Z,89.53
2017-11-14T01:33:12.247Z,89.92
2017-11-14T01:35:42.280Z,90.19
2017-11-14T01:38:12.360Z,90.64
2017-11-14T01:40:42.348Z,91.06
2017-11-14T01:43:12.281Z,91.22
2017-11-14T01:45:44.287Z,89.44
2017-11-14T01:48:15.044Z,89.57
2017-11-14T01:50:45.853Z,89.77
2017-11-14T01:53:16.209Z,89.50
2017-11-14T01:55:46.186Z,89.38
2017-11-14T01:58:16.333Z,88.76
2017-11-14T02:00:52.185Z,88.86
2017-11-14T02:03:25.497Z,88.92
2017-11-14T02:05:55.340Z,88.27
2017-11-14T02:08:28.730Z,87.82
2017-11-14T02:10:59.734Z,88.48
2017-11-14T02:13:33.206Z,89.31
2017-11-14T02:16:04.087Z,89.85
2017-11-14T02:18:37.149Z,90.42
2017-11-14T02:23:41.437Z,91.49
2017-11-14T02:26:11.334Z,91.86
2017-11-14T02:31:15.316Z,92.83
2017-11-14T02:38:54.015Z,93.32
2017-11-14T02:51:40.640Z,91.92
2017-11-14T03:07:06.670Z,95.33
2017-11-14T03:12:15.224Z,96.58
2017-11-14T03:25:09.762Z,97.73
2017-11-14T03:48:20.760Z,95.20
2017-11-14T04:14:23.765Z,99.01
2017-11-14T04:19:29.163Z,97.90
2017-11-14T04:22:02.460Z,97.69
2017-11-14T04:24:34.260Z,97.62
2017-11-14T04:32:16.597Z,96.79
2017-11-14T04:34:47.978Z,96.38
2017-11-14T04:37:18.573Z,96.42
2017-11-14T04:39:48.834Z,96.41
2017-11-14T04:42:18.721Z,96.13
2017-11-14T04:44:50.307Z,95.88
2017-11-14T04:47:20.302Z,95.25
2017-11-14T04:49:50.313Z,94.40
2017-11-14T04:52:21.899Z,94.35
2017-11-14T04:57:25.909Z,95.19
2017-11-14T05:02:31.106Z,95.75
2017-11-14T05:05:02.647Z,95.71
2017-11-14T05:07:37.348Z,95.64
2017-11-14T05:10:08.822Z,95.73
2017-11-14T05:12:39.255Z,95.89
2017-11-14T05:15:10.626Z,96.11
2017-11-14T05:22:51.656Z,94.25
2017-11-14T05:25:22.371Z,94.48
2017-11-14T05:43:54.200Z,94.54
2017-11-14T05:56:58.663Z,93.07
2017-11-14T05:59:28.494Z,92.38
2017-11-14T06:02:02.221Z,92.04
2017-11-14T06:04:31.846Z,92.33
2017-11-14T06:07:01.665Z,92.73
2017-11-14T06:09:35.617Z,93.32
2017-11-14T06:12:05.405Z,94.06
2017-11-14T06:17:24.341Z,95.34
2017-11-14T06:19:54.713Z,95.58
2017-11-14T06:22:24.690Z,95.90
2017-11-14T06:24:54.550Z,96.19
2017-11-14T06:27:42.959Z,95.64
2017-11-14T06:30:15.247Z,95.37
2017-11-14T06:32:45.538Z,95.43
2017-11-14T06:35:18.590Z,95.66
2017-11-14T06:37:48.680Z,94.84
2017-11-14T06:40:19.175Z,94.68
2017-11-14T06:42:49.186Z,94.56
2017-11-14T06:45:19.448Z,94.59
2017-11-14T06:47:49.455Z,94.28
2017-11-14T06:50:19.314Z,93.91
2017-11-14T06:52:49.324Z,92.96
2017-11-14T06:55:19.626Z,91.76
2017-11-14T06:57:49.551Z,89.20
2017-11-14T07:00:19.569Z,86.33
2017-11-14T07:02:49.546Z,87.28
2017-11-14T07:05:20.504Z,86.32
2017-11-14T07:07:50.612Z,85.80
2017-11-14T07:10:20.617Z,83.79
2017-11-14T07:12:50.443Z,83.52
2017-11-14T07:15:20.348Z,83.60
2017-11-14T07:17:49.908Z,83.76
2017-11-14T07:20:19.862Z,84.09
2017-11-14T07:22:50.108Z,84.68
2017-11-14T07:25:20.003Z,83.55
2017-11-14T07:27:50.837Z,82.70
2017-11-14T07:30:20.657Z,83.59
2017-11-14T07:32:50.814Z,82.49
2017-11-14T07:35:20.901Z,82.37
2017-11-14T07:37:51.075Z,80.88
2017-11-14T07:40:21.271Z,81.51
2017-11-14T07:42:51.103Z,80.00
2017-11-14T07:45:21.004Z,80.32
2017-11-14T07:47:51.795Z,78.59
2017-11-14T07:50:21.730Z,79.28
2017-11-14T07:52:51.941Z,77.74
2017-11-14T07:55:21.895Z,78.21
2017-11-14T07:57:51.799Z,77.46
2017-11-14T08:00:22.574Z,75.82
2017-11-14T08:02:53.288Z,75.42
2017-11-14T08:05:24.807Z,75.65
2017-11-14T08:07:54.701Z,74.90
2017-11-14T08:10:26.062Z,75.44
2017-11-14T08:12:56.592Z,74.17
2017-11-14T08:15:26.937Z,73.97
2017-11-14T08:17:56.957Z,72.79
2017-11-14T08:20:27.173Z,72.24
2017-11-14T08:22:57.791Z,71.12
2017-11-14T08:25:27.872Z,71.69
2017-11-14T08:27:58.758Z,72.49
2017-11-14T08:30:29.241Z,72.80
2017-11-14T08:32:59.184Z,71.96
2017-11-14T08:35:29.483Z,71.62
2017-11-14T08:37:59.475Z,70.01
2017-11-14T08:40:31.607Z,68.62
2017-11-14T08:43:02.067Z,67.66
2017-11-14T08:45:36.373Z,64.11
2017-11-14T08:48:06.575Z,54.82
2017-11-14T08:50:36.549Z,48.89
2017-11-14T08:53:06.667Z,45.49
2017-11-14T08:55:36.522Z,43.35
2017-11-14T08:58:06.450Z,43.56
2017-11-14T09:00:36.507Z,42.86
2017-11-14T09:03:06.168Z,41.34
2017-11-14T09:05:36.179Z,40.95
2017-11-14T09:08:06.631Z,40.86
2017-11-14T09:10:36.167Z,39.34
2017-11-14T09:13:06.051Z,38.38
2017-11-14T09:15:37.408Z,35.77
2017-11-14T09:18:07.679Z,33.24
2017-11-14T09:20:37.791Z,32.50
2017-11-14T09:23:07.598Z,34.37
2017-11-14T09:25:37.930Z,35.71
2017-11-14T09:28:07.232Z,38.23
2017-11-14T09:30:36.561Z,38.33
2017-11-14T09:33:06.157Z,37.19
2017-11-14T09:35:35.782Z,38.01
2017-11-14T09:38:05.793Z,40.76
2017-11-14T09:40:35.706Z,39.88
2017-11-14T09:43:05.552Z,40.62
2017-11-14T09:45:35.415Z,40.78
2017-11-14T09:48:05.055Z,40.35
2017-11-14T09:50:34.536Z,39.81
2017-11-14T09:53:03.857Z,39.72
2017-11-14T09:55:33.846Z,37.05
2017-11-14T09:58:03.415Z,36.15
2017-11-14T10:00:33.293Z,39.00
2017-11-14T10:03:02.813Z,40.39
2017-11-14T10:05:32.353Z,39.48
2017-11-14T10:08:02.033Z,37.06
2017-11-14T10:10:31.851Z,35.27
2017-11-14T10:13:01.338Z,38.90
2017-11-14T10:15:31.273Z,38.87
2017-11-14T10:18:01.288Z,38.52
2017-11-14T10:20:30.766Z,37.22
2017-11-14T10:23:00.486Z,37.19
2017-11-14T10:25:30.271Z,32.45
2017-11-14T10:28:00.560Z,31.61
2017-11-14T10:30:31.590Z,28.95
2017-11-14T10:33:01.309Z,28.13
2017-11-14T10:35:32.505Z,26.00
2017-11-14T10:38:02.534Z,27.64
2017-11-14T10:40:41.064Z,26.53
2017-11-14T10:43:14.600Z,24.75
2017-11-14T10:48:23.141Z,25.00
2017-11-14T10:51:02.585Z,26.61
2017-11-14T10:53:43.894Z,23.51
2017-11-14T10:59:00.949Z,22.32
2017-11-14T11:01:32.910Z,24.72
2017-11-14T11:04:05.595Z,23.74
2017-11-14T11:06:37.116Z,24.43
2017-11-14T11:11:43.083Z,22.21
2017-11-14T11:14:21.774Z,23.46
2017-11-14T11:19:48.392Z,21.73
2017-11-14T11:32:48.989Z,23.12
2017-11-14T11:35:37.911Z,21.82
2017-11-14T11:41:05.472Z,20.19
2017-11-14T11:43:42.332Z,21.69
2017-11-14T12:05:05.233Z,17.81
2017-11-14T12:19:27.865Z,24.61
2017-11-14T12:21:57.752Z,24.88
2017-11-14T12:24:27.359Z,22.40
2017-11-14T12:26:57.044Z,24.46
2017-11-14T12:29:26.569Z,20.36
2017-11-14T12:31:56.330Z,19.61
2017-11-14T12:34:25.840Z,20.31
2017-11-14T12:36:56.358Z,22.12
2017-11-14T12:39:25.782Z,21.28
2017-11-14T12:41:55.239Z,20.94
2017-11-14T12:44:24.713Z,22.22
2017-11-14T12:46:54.144Z,22.71
2017-11-14T12:49:24.149Z,22.03
2017-11-14T13:40:16.561Z,22.87
2017-11-14T13:42:46.340Z,22.80
2017-11-14T13:45:16.007Z,23.03
2017-11-14T13:47:45.728Z,24.29
2017-11-14T13:50:15.183Z,24.58
2017-11-14T13:52:45.071Z,23.57
2017-11-14T13:55:14.594Z,24.20
2017-11-14T13:57:44.312Z,24.90
2017-11-14T14:00:14.314Z,25.91
2017-11-14T14:02:43.897Z,24.92
2017-11-14T14:05:13.670Z,28.35
2017-11-14T14:07:43.954Z,29.58
2017-11-14T14:10:14.119Z,28.98
2017-11-14T14:12:43.907Z,28.36
2017-11-14T14:15:13.382Z,28.59
2017-11-14T14:17:42.850Z,30.66
2017-11-14T14:20:12.317Z,29.55
2017-11-14T14:22:41.896Z,30.42
2017-11-14T14:25:11.375Z,31.09
2017-11-14T14:27:40.833Z,30.77
2017-11-14T14:30:10.331Z,32.68
2017-11-14T14:32:39.883Z,32.92
2017-11-14T14:35:09.280Z,33.66
2017-11-14T14:37:43.146Z,34.29
2017-11-14T14:40:12.689Z,33.32
2017-11-14T14:42:42.144Z,35.24
2017-11-14T14:45:11.706Z,36.08
2017-11-14T14:47:41.231Z,36.52
2017-11-14T14:50:10.671Z,40.65
2017-11-14T14:52:40.405Z,43.86
2017-11-14T14:55:10.000Z,48.07
2017-11-14T14:57:39.775Z,49.19
2017-11-14T15:00:09.689Z,52.06
2017-11-14T15:02:39.445Z,56.45
2017-11-14T15:05:09.287Z,61.10
2017-11-14T15:07:39.047Z,62.52
2017-11-14T15:10:08.818Z,64.67
2017-11-14T15:12:38.411Z,66.09
2017-11-14T15:15:08.527Z,68.22
2017-11-14T15:17:39.600Z,69.61
2017-11-14T15:20:11.010Z,70.83
2017-11-14T15:22:44.676Z,72.21
2017-11-14T15:25:14.538Z,73.39
2017-11-14T15:27:44.992Z,74.56
2017-11-14T15:30:14.448Z,75.43
2017-11-14T15:32:44.416Z,76.71
2017-11-14T15:35:14.910Z,77.58
2017-11-14T15:37:44.753Z,78.72
2017-11-14T15:40:14.676Z,79.16
2017-11-14T15:42:44.782Z,80.09
2017-11-14T15:45:14.860Z,80.86
2017-11-14T15:47:44.872Z,81.76
2017-11-14T15:50:14.965Z,82.90
2017-11-14T15:52:48.749Z,84.14
2017-11-14T15:55:18.532Z,84.91
2017-11-14T15:57:48.615Z,85.55
2017-11-14T16:00:19.359Z,86.04
2017-11-14T16:02:49.144Z,85.84
2017-11-14T16:05:18.891Z,85.98
2017-11-14T16:07:48.748Z,86.57
2017-11-14T16:10:18.590Z,86.99
2017-11-14T16:12:49.254Z,87.49
2017-11-14T16:15:19.170Z,88.10
2017-11-14T16:17:49.067Z,88.08
2017-11-14T16:20:18.911Z,88.24
2017-11-14T16:22:50.266Z,88.89
2017-11-14T16:25:20.604Z,89.54
2017-11-14T16:27:50.540Z,90.01
2017-11-14T16:30:20.859Z,90.93
2017-11-14T16:32:50.880Z,91.37
2017-11-14T16:35:21.106Z,91.93
2017-11-14T16:37:51.969Z,91.82
2017-11-14T16:40:21.449Z,92.03
2017-11-14T16:42:51.261Z,92.12
2017-11-14T16:45:21.353Z,92.68
2017-11-14T16:47:51.480Z,93.16
2017-11-14T16:50:24.325Z,92.36
2017-11-14T16:52:54.279Z,90.13
2017-11-14T16:55:24.194Z,89.18
2017-11-14T16:57:54.371Z,89.03
2017-11-14T17:00:24.104Z,89.11
2017-11-14T17:02:53.835Z,89.44
2017-11-14T17:05:23.754Z,89.10
2017-11-14T17:07:53.526Z,89.07
2017-11-14T17:10:23.226Z,89.47
2017-11-14T17:12:53.349Z,89.70
2017-11-14T17:15:24.089Z,89.95
2017-11-14T17:17:54.301Z,90.33
2017-11-14T17:20:25.255Z,90.38
2017-11-14T17:22:55.521Z,90.86
2017-11-14T17:25:26.235Z,90.89
2017-11-14T17:27:56.769Z,91.76
2017-11-14T17:30:26.621Z,92.39
2017-11-14T17:32:56.441Z,92.42
2017-11-14T17:35:30.213Z,92.55
2017-11-14T17:38:00.006Z,92.88
2017-11-14T17:40:30.047Z,93.63
2017-11-14T17:43:00.264Z,93.54
2017-11-14T17:45:31.741Z,93.73
2017-11-14T17:48:01.791Z,94.26
2017-11-14T17:50:31.865Z,95.10
2017-11-14T17:53:01.847Z,95.54
2017-11-14T17:55:31.752Z,95.57
2017-11-14T17:58:01.658Z,95.60
2017-11-14T18:00:31.492Z,95.98
2017-11-14T18:03:00.908Z,96.53
2017-11-14T18:05:36.568Z,96.99
2017-11-14T18:08:06.501Z,97.44
2017-11-14T18:10:36.456Z,97.70
2017-11-14T18:13:06.398Z,97.86
2017-11-14T18:15:37.280Z,98.00
2017-11-14T18:18:07.190Z,98.09
2017-11-14T18:20:37.133Z,98.18
2017-11-14T18:23:07.210Z,98.09
2017-11-14T18:25:37.270Z,97.85
2017-11-14T18:28:07.220Z,97.67
2017-11-14T18:30:37.177Z,97.72
2017-11-14T18:33:06.996Z,96.96
2017-11-14T18:35:36.851Z,95.89
2017-11-14T18:38:06.926Z,95.52
2017-11-14T18:40:36.733Z,95.86
2017-11-14T18:43:06.590Z,95.85
2017-11-14T18:45:36.499Z,96.01
2017-11-14T18:48:06.422Z,96.00
2017-11-14T18:50:36.262Z,96.60
2017-11-14T18:53:06.084Z,96.80
2017-11-14T18:55:35.847Z,96.98
2017-11-14T18:58:05.795Z,97.34
2017-11-14T19:00:35.715Z,97.99
2017-11-14T19:03:06.131Z,98.65
2017-11-14T19:05:35.985Z,99.19
2017-11-14T19:08:09.668Z,99.38
2017-11-14T19:10:39.435Z,99.54
2017-11-14T19:13:09.168Z,99.52
2017-11-14T19:15:38.891Z,99.58
2017-11-14T19:18:08.731Z,99.76
2017-11-14T19:20:38.493Z,99.94
2017-11-14T19:23:08.226Z,100.00
2017-11-14T19:25:37.971Z,100.00
2017-11-14T19:28:07.725Z,100.00
2017-11-14T19:30:37.480Z,100.00
2017-11-14T19:33:08.977Z,100.00
2017-11-14T19:35:42.885Z,100.00
2017-11-14T19:38:15.661Z,100.00
2017-11-14T19:40:53.516Z,100.00
2017-11-14T19:43:23.985Z,100.00
2017-11-14T19:53:42.193Z,100.00
2017-11-14T19:56:14.208Z,100.00
2017-11-14T20:09:22.447Z,100.00
2017-11-14T20:14:28.825Z,100.00
2017-11-14T20:16:59.608Z,100.00
2017-11-14T20:24:39.447Z,100.00
2017-11-14T20:27:09.202Z,100.00
2017-11-14T20:29:38.954Z,100.00
2017-11-14T21:38:23.553Z,100.00
2017-11-14T21:40:56.919Z,100.00
2017-11-14T21:43:27.893Z,100.00
2017-11-14T21:46:00.211Z,100.00
2017-11-14T21:48:46.858Z,100.00
2017-11-14T21:51:20.655Z,100.00
2017-11-14T22:00:08.601Z,100.00
2017-11-14T22:15:45.212Z,100.00
2017-11-14T22:21:57.506Z,100.00
2017-11-14T22:58:03.495Z,100.00
2017-11-14T23:03:55.593Z,100.00
2017-11-14T23:09:17.227Z,98.12
2017-11-14T23:17:18.163Z,97.75
